Albert, KS

10:06 PM CDT on October 01, 2014 (GMT -0500)
Pratt Industrial | Change Station
CLOSE
Current Station
Airport
Location: Pratt,
Elevation: 1952 ft
Nearby Weather Stations

Elev 1952 ft 37.70 °N, 98.75 °W | Updated -1720 second ago

Clear
Clear
72 °F
Feels Like 72 °F
N
13
Wind Variable Wind from SSW

Today
High -- | Low -- °F
--% Chance of Precip.
Yesterday
High -- | Low -- °F
Precip. -- in
7:31 AM 7:18 PM
First Quarter, 54% visible
Pressure 29.72 in
Visibility 10.0 miles
Clouds Mostly Cloudy 7000 ft
Overcast 9000 ft
Dew Point 59 °F
Humidity 64%
Rainfall 0.04 in
Snow Depth Not available.
UV 0 out of 12
Pollen 4.10 out of 12
Air Quality Not available.
Flu Activity Not available.
METAR KPTT 010335Z AUTO 20011KT 10SM VCTS BKN070 OVC090 22/15 A2972 RMK AO2 LTG DSNT NE AND NW

More Conditions Fewer Conditions

Pressure 29.72 in
Visibility 10.0 miles
Clouds Mostly Cloudy 7000 ft
Overcast 9000 ft
Dew Point 59 °F
Humidity 64%
Rainfall 0.04 in
Snow Depth Not available.
UV 0 out of 12
Pollen 4.10 out of 12
Air Quality Not available.
Flu Activity Not available.
METAR KPTT 010335Z AUTO 20011KT 10SM VCTS BKN070 OVC090 22/15 A2972 RMK AO2 LTG DSNT NE AND NW

More Conditions Fewer Conditions

10-Day Weather Forecast

Almanac

Astronomy

Oct. 01, 2014 Rise Set
Actual Time 7:31 AM CDT 7:18 PM CDT
Civil Twilight 7:05 AM CDT 7:45 PM CDT
Nautical Twilight 6:34 AM CDT 8:15 PM CDT
Astronomical Twilight 6:03 AM CDT 8:46 PM CDT
Moon 2:30 PM CDT (10/1) No Moon Set
Length of Visible Light 12h 39m
Length of Day
11h 46m
Tomorrow will be 2m 27s shorter.
First Quarter, 54% of the Moon is Illuminated
Today
First Quarter
Oct 8
Full
Oct 15
Last Quarter
Oct 23
New
Oct 30
First Quarter

Today's Extremes

State Highs State Lows

Community

WunderPhotos

Upload Photos

1,758,157 photos uploaded!

WunderBlogs® & News

Nearby

Snow Depth

Station Depth Elevation
No new snow has been reported.

Earthquake Activity

City Distance Mag. Time & Date
Medford, Oklahoma 129 miles 3.6 1:18 PM CDT
2014-10-01
Harper, Kansas 104 miles 3.3 1:11 AM CDT
2014-10-01
Medford, Oklahoma 127 miles 2.5 10:49 PM CDT
2014-09-30
Medford, Oklahoma 127 miles 2.8 8:30 PM CDT
2014-09-30
Minimum magnitude displayed is 2.5.

Coastal Water Temperatures

Place Temperature
No Stations Reporting

Nearby Weather Stations